createdAt,value
2022-09-27T00:01:34.926Z,19.10
2022-09-27T00:06:56.763Z,20.58
2022-09-27T00:12:18.631Z,20.25
2022-09-27T00:17:40.883Z,21.30
2022-09-27T00:23:02.661Z,21.48
2022-09-27T00:28:25.782Z,21.23
2022-09-27T00:33:49.915Z,23.70
2022-09-27T00:39:11.773Z,23.60
2022-09-27T00:44:33.499Z,22.23
2022-09-27T00:50:07.633Z,24.40
2022-09-27T00:55:38.433Z,24.35
2022-09-27T01:01:05.678Z,26.13
2022-09-27T01:06:27.507Z,23.95
2022-09-27T01:12:28.880Z,26.00
2022-09-27T01:18:17.417Z,26.35
2022-09-27T01:24:06.670Z,25.80
2022-09-27T01:29:49.985Z,28.45
2022-09-27T01:35:25.957Z,25.70
2022-09-27T01:41:19.835Z,29.63
2022-09-27T01:46:47.137Z,27.30
2022-09-27T01:52:12.412Z,27.10
2022-09-27T01:57:41.080Z,32.30
2022-09-27T02:03:11.773Z,32.65
2022-09-27T02:08:53.202Z,35.08
2022-09-27T02:14:32.017Z,35.53
2022-09-27T02:20:17.316Z,33.33
2022-09-27T02:25:46.750Z,35.95
2022-09-27T02:31:09.187Z,39.53
2022-09-27T02:36:31.082Z,37.58
2022-09-27T02:41:52.929Z,39.72
2022-09-27T02:47:29.129Z,41.50
2022-09-27T02:53:11.030Z,48.20
2022-09-27T02:58:47.860Z,41.72
2022-09-27T03:04:40.542Z,53.03
2022-09-27T03:10:02.409Z,58.72
2022-09-27T03:15:24.439Z,57.88
2022-09-27T03:20:46.348Z,53.22
2022-09-27T03:26:12.269Z,43.00
2022-09-27T03:36:56.640Z,50.50
2022-09-27T03:42:18.389Z,48.10
2022-09-27T03:47:41.169Z,46.38
2022-09-27T03:53:02.988Z,48.35
2022-09-27T03:58:24.871Z,53.13
2022-09-27T04:03:46.687Z,44.65
2022-09-27T04:09:08.550Z,40.75
2022-09-27T04:14:30.543Z,46.05
2022-09-27T04:19:52.340Z,40.78
2022-09-27T04:25:14.153Z,43.13
2022-09-27T04:30:35.982Z,43.47
2022-09-27T04:35:57.796Z,43.00
2022-09-27T04:41:20.348Z,42.70
2022-09-27T04:46:42.221Z,44.78
2022-09-27T04:52:04.304Z,47.63
2022-09-27T04:57:26.076Z,48.83
2022-09-27T05:02:47.946Z,47.42
2022-09-27T05:08:09.777Z,81.25
2022-09-27T05:13:31.566Z,85.82
2022-09-27T05:18:53.325Z,84.65
2022-09-27T05:24:15.098Z,55.58
2022-09-27T05:29:36.900Z,57.22
2022-09-27T05:34:58.667Z,57.85
2022-09-27T05:40:39.691Z,62.33
2022-09-27T05:46:02.534Z,51.72
2022-09-27T05:51:24.405Z,66.95
2022-09-27T05:56:46.333Z,60.08
2022-09-27T06:02:11.493Z,43.65
2022-09-27T06:07:33.379Z,34.20
2022-09-27T06:13:10.263Z,49.60
2022-09-27T06:18:32.151Z,52.92
2022-09-27T06:23:54.453Z,44.42
2022-09-27T06:29:16.376Z,33.92
2022-09-27T06:34:38.217Z,32.38
2022-09-27T06:40:00.011Z,35.35
2022-09-27T06:45:21.808Z,33.30
2022-09-27T06:50:45.295Z,35.78
2022-09-27T06:56:07.070Z,35.83
2022-09-27T07:01:29.706Z,42.28
2022-09-27T07:06:51.627Z,40.92
2022-09-27T07:12:13.522Z,51.47
2022-09-27T07:17:35.289Z,48.78
2022-09-27T07:22:57.773Z,51.38
2022-09-27T07:28:22.024Z,40.05
2022-09-27T07:33:44.246Z,40.80
2022-09-27T07:39:06.356Z,37.08
2022-09-27T07:44:28.183Z,35.35
2022-09-27T07:49:51.018Z,38.88
2022-09-27T07:55:14.657Z,36.97
2022-09-27T08:00:37.617Z,31.08
2022-09-27T08:06:02.897Z,33.83
2022-09-27T08:11:24.642Z,36.03
2022-09-27T08:16:46.404Z,30.98
2022-09-27T08:22:08.425Z,31.40
2022-09-27T08:27:30.170Z,30.15
2022-09-27T08:32:56.224Z,28.10
2022-09-27T08:38:18.057Z,30.10
2022-09-27T08:43:50.930Z,28.30
2022-09-27T08:49:24.383Z,26.20
2022-09-27T08:54:46.930Z,28.30
2022-09-27T09:00:12.023Z,25.05
2022-09-27T09:05:35.512Z,24.73
2022-09-27T09:10:57.213Z,24.52
2022-09-27T09:16:31.005Z,24.08
2022-09-27T09:22:18.845Z,24.75
2022-09-27T09:28:08.785Z,24.70
2022-09-27T09:33:37.688Z,25.30
2022-09-27T09:39:12.720Z,24.63
2022-09-27T09:44:51.067Z,21.90
2022-09-27T09:50:19.192Z,19.77
2022-09-27T09:55:43.836Z,19.10
2022-09-27T10:01:21.578Z,17.90
2022-09-27T10:06:43.676Z,16.42
2022-09-27T10:12:05.469Z,16.83
2022-09-27T10:17:35.986Z,13.13
2022-09-27T10:23:06.133Z,11.93
2022-09-27T10:28:37.099Z,12.82
2022-09-27T10:34:05.311Z,13.52
2022-09-27T10:39:28.290Z,14.02
2022-09-27T10:44:50.054Z,15.13
2022-09-27T10:50:45.929Z,15.35
2022-09-27T10:56:05.982Z,16.63
2022-09-27T11:01:40.753Z,16.42
2022-09-27T11:07:13.248Z,16.63
2022-09-27T11:12:35.039Z,18.77
2022-09-27T11:18:11.778Z,17.17
2022-09-27T11:23:39.596Z,16.58
2022-09-27T11:29:16.616Z,13.48
2022-09-27T11:34:53.380Z,16.05
2022-09-27T11:40:33.999Z,16.30
2022-09-27T11:46:23.752Z,17.23
2022-09-27T11:52:21.150Z,16.80
2022-09-27T11:57:50.822Z,14.05
2022-09-27T12:03:40.572Z,16.30
2022-09-27T12:09:14.952Z,14.88
2022-09-27T12:14:45.350Z,16.17
2022-09-27T12:20:18.932Z,14.85
2022-09-27T12:25:42.603Z,16.13
2022-09-27T12:31:54.981Z,18.25
2022-09-27T12:37:24.400Z,14.07
2022-09-27T12:42:53.299Z,14.10
2022-09-27T12:48:48.656Z,12.48
2022-09-27T12:54:13.531Z,12.65
2022-09-27T12:59:55.943Z,12.05
2022-09-27T13:05:32.902Z,12.00
2022-09-27T13:11:13.451Z,11.30
2022-09-27T13:16:45.082Z,11.45
2022-09-27T13:22:37.937Z,10.30
2022-09-27T13:27:59.771Z,9.65
2022-09-27T13:33:30.308Z,9.98
2022-09-27T13:39:01.258Z,10.85
2022-09-27T13:44:42.322Z,10.13
2022-09-27T13:50:15.384Z,9.15
2022-09-27T13:55:38.855Z,9.50
2022-09-27T14:01:05.457Z,9.88
2022-09-27T14:11:59.733Z,8.95
2022-09-27T14:17:22.073Z,8.93
2022-09-27T14:22:54.088Z,8.50
2022-09-27T14:28:21.593Z,9.25
2022-09-27T14:33:43.995Z,9.13
2022-09-27T14:39:15.976Z,8.73
2022-09-27T14:44:44.520Z,10.27
2022-09-27T14:50:30.128Z,9.65
2022-09-27T14:55:52.599Z,8.67
2022-09-27T15:01:19.309Z,9.68
2022-09-27T15:06:41.342Z,8.85
2022-09-27T15:12:04.853Z,8.57
2022-09-27T15:17:26.625Z,8.35
2022-09-27T15:22:48.514Z,8.90
2022-09-27T15:28:19.342Z,9.10
2022-09-27T15:33:42.178Z,8.43
2022-09-27T15:39:09.489Z,8.93
2022-09-27T15:44:53.680Z,8.88
2022-09-27T15:50:15.392Z,9.05
2022-09-27T15:55:46.289Z,9.82
2022-09-27T16:01:08.117Z,9.82
2022-09-27T16:06:29.984Z,10.35
2022-09-27T16:11:51.876Z,9.43
2022-09-27T16:17:14.233Z,9.00
2022-09-27T16:22:35.990Z,8.23
2022-09-27T16:27:59.321Z,9.07
2022-09-27T16:33:21.075Z,9.63
2022-09-27T16:38:43.054Z,10.30
2022-09-27T16:44:09.688Z,12.05
2022-09-27T16:54:53.191Z,10.93
2022-09-27T17:00:15.862Z,10.45
2022-09-27T17:05:37.723Z,10.90
2022-09-27T17:10:59.486Z,12.18
2022-09-27T17:16:22.472Z,12.00
2022-09-27T17:21:46.421Z,13.52
2022-09-27T17:27:08.566Z,14.60
2022-09-27T17:32:30.530Z,13.55
2022-09-27T17:37:52.445Z,13.20
2022-09-27T17:43:14.457Z,14.00
2022-09-27T17:48:37.156Z,13.23
2022-09-27T17:53:59.333Z,13.05
2022-09-27T17:59:21.137Z,13.98
2022-09-27T18:04:43.053Z,14.48
2022-09-27T18:10:05.704Z,14.88
2022-09-27T18:15:27.706Z,13.50
2022-09-27T18:20:49.595Z,16.33
2022-09-27T18:26:11.725Z,14.07
2022-09-27T18:31:33.984Z,14.43
2022-09-27T18:36:56.070Z,17.40
2022-09-27T18:42:18.018Z,16.55
2022-09-27T18:47:40.092Z,16.48
2022-09-27T18:53:02.240Z,15.32
2022-09-27T18:58:24.244Z,15.93
2022-09-27T19:03:47.214Z,14.93
2022-09-27T19:09:11.461Z,18.90
2022-09-27T19:14:33.446Z,15.57
2022-09-27T19:19:55.267Z,14.85
2022-09-27T19:25:17.150Z,16.17
2022-09-27T19:30:43.773Z,14.60
2022-09-27T19:36:08.492Z,15.60
2022-09-27T19:41:30.293Z,15.20
2022-09-27T19:46:52.110Z,13.15
2022-09-27T19:52:13.900Z,13.43
2022-09-27T19:57:35.686Z,12.40
2022-09-27T20:02:57.475Z,12.15
2022-09-27T20:08:19.336Z,13.77
2022-09-27T20:13:41.873Z,14.68
2022-09-27T20:19:03.682Z,17.35
2022-09-27T20:24:25.574Z,12.43
2022-09-27T20:29:47.396Z,13.68
2022-09-27T20:35:09.564Z,12.88
2022-09-27T20:40:31.373Z,12.45
2022-09-27T20:45:53.250Z,14.50
2022-09-27T20:51:15.030Z,14.70
2022-09-27T20:56:41.962Z,14.93
2022-09-27T21:02:03.795Z,15.15
2022-09-27T21:07:25.615Z,16.38
2022-09-27T21:12:47.386Z,14.48
2022-09-27T21:18:09.841Z,15.55
2022-09-27T21:23:32.560Z,15.48
2022-09-27T21:28:56.497Z,16.63
2022-09-27T21:34:18.278Z,15.93
2022-09-27T21:39:40.038Z,16.75
2022-09-27T21:45:01.810Z,19.25
2022-09-27T21:50:23.665Z,16.23
2022-09-27T21:55:56.066Z,18.17
2022-09-27T22:01:23.473Z,15.57
2022-09-27T22:06:45.442Z,15.30
2022-09-27T22:12:07.195Z,14.93
2022-09-27T22:17:28.941Z,15.50
2022-09-27T22:22:50.716Z,16.58
2022-09-27T22:28:12.540Z,15.63
2022-09-27T22:33:34.459Z,15.55
2022-09-27T22:38:56.594Z,15.73
2022-09-27T22:44:18.382Z,15.75
2022-09-27T22:49:40.229Z,14.73
2022-09-27T22:55:02.064Z,15.88
2022-09-27T23:00:24.043Z,15.02
2022-09-27T23:05:45.954Z,15.55
2022-09-27T23:11:13.502Z,16.83
2022-09-27T23:16:36.678Z,16.40
2022-09-27T23:21:58.473Z,17.58
2022-09-27T23:27:20.401Z,16.80
2022-09-27T23:32:43.455Z,15.88
2022-09-27T23:38:05.293Z,17.30
2022-09-27T23:43:27.366Z,15.98
2022-09-27T23:48:49.156Z,15.68
2022-09-27T23:54:11.080Z,14.93
2022-09-27T23:59:33.114Z,18.50
